createdAt,value
2019-03-02T00:01:24.885Z,55.69
2019-03-02T00:03:54.234Z,56.07
2019-03-02T00:06:23.899Z,56.42
2019-03-02T00:08:53.283Z,56.84
2019-03-02T00:11:24.715Z,57.81
2019-03-02T00:13:54.097Z,57.93
2019-03-02T00:16:23.444Z,57.85
2019-03-02T00:18:52.811Z,57.72
2019-03-02T00:21:22.165Z,58.00
2019-03-02T00:23:54.347Z,58.01
2019-03-02T00:26:22.964Z,57.79
2019-03-02T00:28:52.334Z,57.93
2019-03-02T00:31:21.689Z,57.96
2019-03-02T00:33:53.672Z,57.88
2019-03-02T00:36:22.772Z,57.71
2019-03-02T00:38:52.141Z,57.47
2019-03-02T00:41:21.518Z,57.60
2019-03-02T00:43:50.941Z,57.81
2019-03-02T00:46:20.711Z,57.96
2019-03-02T00:48:51.401Z,57.98
2019-03-02T00:51:20.752Z,57.97
2019-03-02T00:53:50.145Z,57.49
2019-03-02T00:56:19.531Z,57.40
2019-03-02T00:58:48.915Z,57.09
2019-03-02T01:01:18.269Z,56.98
2019-03-02T01:03:47.834Z,58.21
2019-03-02T01:06:18.724Z,58.97
2019-03-02T01:08:48.147Z,59.40
2019-03-02T01:11:17.524Z,59.07
2019-03-02T01:13:46.930Z,59.00
2019-03-02T01:16:16.755Z,59.14
2019-03-02T01:18:47.402Z,59.08
2019-03-02T01:21:16.776Z,58.81
2019-03-02T01:23:46.145Z,58.41
2019-03-02T01:26:15.520Z,59.07
2019-03-02T01:28:45.385Z,59.89
2019-03-02T01:31:14.851Z,60.27
2019-03-02T01:33:44.391Z,59.64
2019-03-02T01:36:13.733Z,59.62
2019-03-02T01:38:43.622Z,59.35
2019-03-02T01:41:14.131Z,59.09
2019-03-02T01:43:44.108Z,58.80
2019-03-02T01:46:14.074Z,59.13
2019-03-02T01:48:43.447Z,59.13
2019-03-02T01:51:12.790Z,59.12
2019-03-02T01:53:45.705Z,58.63
2019-03-02T01:56:13.244Z,58.87
2019-03-02T01:58:42.733Z,58.71
2019-03-02T02:01:12.091Z,58.63
2019-03-02T02:03:43.676Z,58.40
2019-03-02T02:06:12.548Z,57.98
2019-03-02T02:08:42.007Z,57.75
2019-03-02T02:11:14.615Z,57.74
2019-03-02T02:13:42.815Z,57.67
2019-03-02T02:16:12.484Z,58.17
2019-03-02T02:18:41.873Z,58.54
2019-03-02T02:21:11.249Z,58.91
2019-03-02T02:23:40.646Z,59.26
2019-03-02T02:26:11.389Z,59.56
2019-03-02T02:28:41.172Z,59.98
2019-03-02T02:31:10.572Z,60.27
2019-03-02T02:33:43.151Z,60.44
2019-03-02T02:36:14.234Z,60.47
2019-03-02T02:38:42.116Z,60.42
2019-03-02T02:41:11.580Z,60.52
2019-03-02T02:43:40.977Z,60.79
2019-03-02T02:46:10.330Z,60.96
2019-03-02T02:48:39.731Z,61.10
2019-03-02T02:51:12.075Z,61.33
2019-03-02T02:53:44.667Z,61.57
2019-03-02T02:56:14.345Z,61.57
2019-03-02T02:58:42.349Z,61.69
2019-03-02T03:01:11.729Z,61.47
2019-03-02T03:03:41.099Z,61.44
2019-03-02T03:06:10.526Z,61.28
2019-03-02T03:08:44.537Z,61.10
2019-03-02T03:11:14.303Z,60.97
2019-03-02T03:13:43.638Z,60.81
2019-03-02T03:16:16.594Z,60.81
2019-03-02T03:18:47.200Z,61.11
2019-03-02T03:21:15.575Z,60.87
2019-03-02T03:23:44.959Z,60.82
2019-03-02T03:26:14.346Z,60.83
2019-03-02T03:28:43.683Z,60.48
2019-03-02T03:31:22.125Z,60.52
2019-03-02T03:33:47.423Z,60.53
2019-03-02T03:36:15.421Z,60.10
2019-03-02T03:38:44.760Z,60.03
2019-03-02T03:41:14.137Z,60.10
2019-03-02T03:43:44.361Z,60.12
2019-03-02T03:46:17.847Z,60.04
2019-03-02T03:48:44.968Z,59.85
2019-03-02T03:51:14.332Z,59.72
2019-03-02T03:53:43.651Z,59.77
2019-03-02T03:56:13.016Z,59.82
2019-03-02T03:58:42.405Z,59.85
2019-03-02T04:01:17.013Z,59.88
2019-03-02T04:03:47.036Z,59.95
2019-03-02T04:06:13.978Z,59.78
2019-03-02T04:08:43.372Z,59.82
2019-03-02T04:11:12.835Z,59.87
2019-03-02T04:13:44.878Z,60.10
2019-03-02T04:16:16.134Z,60.06
2019-03-02T04:18:58.545Z,60.20
2019-03-02T04:21:35.126Z,59.99
2019-03-02T04:24:04.827Z,60.22
2019-03-02T04:26:36.713Z,60.00
2019-03-02T04:29:10.217Z,59.82
2019-03-02T04:31:36.434Z,59.95
2019-03-02T04:34:05.796Z,60.05
2019-03-02T04:36:35.126Z,60.03
2019-03-02T04:39:09.560Z,60.04
2019-03-02T04:41:39.561Z,60.26
2019-03-02T04:44:07.769Z,60.14
2019-03-02T04:46:37.126Z,60.53
2019-03-02T04:49:06.509Z,60.63
2019-03-02T04:51:38.810Z,60.90
2019-03-02T04:54:06.945Z,60.74
2019-03-02T04:56:36.329Z,60.85
2019-03-02T04:59:05.812Z,60.91
2019-03-02T05:01:35.203Z,61.42
2019-03-02T05:04:04.658Z,61.33
2019-03-02T05:06:34.027Z,61.58
2019-03-02T05:09:04.452Z,61.79
2019-03-02T05:11:35.475Z,61.84
2019-03-02T05:14:05.545Z,61.95
2019-03-02T05:16:34.988Z,62.06
2019-03-02T05:19:04.354Z,61.94
2019-03-02T05:21:33.705Z,61.94
2019-03-02T05:24:09.059Z,62.10
2019-03-02T05:26:34.138Z,61.99
2019-03-02T05:29:03.686Z,61.87
2019-03-02T05:31:33.064Z,62.26
2019-03-02T05:34:04.491Z,61.98
2019-03-02T05:36:33.493Z,62.24
2019-03-02T05:39:04.545Z,62.04
2019-03-02T05:41:35.734Z,62.29
2019-03-02T05:44:05.004Z,62.11
2019-03-02T05:46:34.382Z,62.08
2019-03-02T05:49:03.742Z,61.95
2019-03-02T05:51:33.102Z,61.85
2019-03-02T05:54:06.026Z,61.75
2019-03-02T05:56:33.918Z,61.53
2019-03-02T05:59:03.374Z,61.50
2019-03-02T06:01:36.714Z,61.39
2019-03-02T06:04:06.161Z,61.14
2019-03-02T06:06:35.522Z,61.24
2019-03-02T06:09:08.431Z,61.01
2019-03-02T06:11:39.395Z,60.91
2019-03-02T06:14:09.567Z,61.04
2019-03-02T06:16:38.928Z,60.92
2019-03-02T06:19:08.400Z,61.25
2019-03-02T06:21:42.832Z,61.21
2019-03-02T06:24:11.174Z,61.34
2019-03-02T06:26:40.626Z,61.29
2019-03-02T06:29:10.192Z,61.34
2019-03-02T06:31:39.567Z,61.39
2019-03-02T06:34:08.973Z,61.76
2019-03-02T06:36:40.953Z,61.83
2019-03-02T06:39:09.456Z,61.91
2019-03-02T06:41:38.864Z,62.19
2019-03-02T06:44:08.268Z,62.27
2019-03-02T06:46:37.699Z,62.72
2019-03-02T06:49:07.633Z,62.91
2019-03-02T06:51:37.023Z,63.03
2019-03-02T06:54:09.136Z,63.26
2019-03-02T06:56:39.523Z,63.22
2019-03-02T06:59:08.577Z,63.07
2019-03-02T07:01:37.966Z,62.89
2019-03-02T07:06:48.610Z,62.84
2019-03-02T07:09:17.978Z,62.83
2019-03-02T07:11:47.328Z,62.89
2019-03-02T07:14:16.817Z,63.15
2019-03-02T07:16:46.185Z,63.08
2019-03-02T07:19:41.134Z,63.43
2019-03-02T07:22:13.612Z,63.52
2019-03-02T07:24:41.853Z,63.80
2019-03-02T07:27:11.510Z,63.82
2019-03-02T07:29:41.169Z,63.79
2019-03-02T07:32:10.738Z,63.70
2019-03-02T07:34:40.727Z,63.29
2019-03-02T07:37:11.659Z,63.25
2019-03-02T07:39:41.063Z,63.21
2019-03-02T07:42:10.448Z,63.05
2019-03-02T07:44:39.939Z,62.82
2019-03-02T07:47:09.336Z,62.83
2019-03-02T07:49:38.763Z,62.80
2019-03-02T07:52:08.127Z,62.61
2019-03-02T07:54:38.777Z,62.92
2019-03-02T07:57:08.823Z,62.74
2019-03-02T07:59:39.339Z,62.62
2019-03-02T08:02:08.684Z,62.43
2019-03-02T08:04:38.480Z,62.39
2019-03-02T08:07:09.109Z,62.71
2019-03-02T08:09:38.428Z,62.93
2019-03-02T08:12:07.779Z,62.98
2019-03-02T08:14:37.150Z,62.89
2019-03-02T08:17:09.820Z,62.88
2019-03-02T08:19:37.674Z,63.06
2019-03-02T08:22:07.809Z,63.11
2019-03-02T08:24:40.202Z,62.80
2019-03-02T08:27:10.329Z,62.48
2019-03-02T08:29:39.628Z,62.40
2019-03-02T08:32:10.362Z,62.18
2019-03-02T08:34:42.837Z,61.85
2019-03-02T08:37:10.984Z,61.89
2019-03-02T08:39:42.860Z,61.99
2019-03-02T08:42:12.119Z,61.96
2019-03-02T08:44:42.446Z,61.41
2019-03-02T08:47:11.822Z,60.46
2019-03-02T08:49:41.756Z,58.27
2019-03-02T08:52:12.174Z,57.39
2019-03-02T08:54:41.568Z,58.33
2019-03-02T08:57:10.941Z,58.09
2019-03-02T08:59:40.298Z,57.58
2019-03-02T09:02:09.715Z,57.44
2019-03-02T09:04:39.132Z,58.03
2019-03-02T09:07:11.472Z,57.79
2019-03-02T09:09:39.598Z,57.12
2019-03-02T09:12:08.973Z,56.68
2019-03-02T09:14:38.338Z,56.73
2019-03-02T09:17:07.687Z,55.97
2019-03-02T09:19:37.197Z,56.16
2019-03-02T09:22:06.671Z,56.18
2019-03-02T09:24:36.175Z,55.55
2019-03-02T09:27:05.579Z,55.83
2019-03-02T09:29:35.003Z,55.37
2019-03-02T09:32:04.580Z,54.66
2019-03-02T09:34:37.089Z,54.04
2019-03-02T09:37:07.048Z,54.15
2019-03-02T09:39:38.191Z,53.43
2019-03-02T09:42:07.661Z,53.61
2019-03-02T09:44:37.055Z,53.56
2019-03-02T09:47:09.006Z,53.47
2019-03-02T09:49:38.360Z,53.72
2019-03-02T09:52:16.503Z,53.81
2019-03-02T09:54:45.846Z,53.85
2019-03-02T09:57:15.219Z,53.65
2019-03-02T09:59:45.459Z,53.53
2019-03-02T10:02:15.755Z,52.30
2019-03-02T10:04:45.160Z,52.13
2019-03-02T10:07:14.552Z,52.03
2019-03-02T10:09:43.919Z,52.16
2019-03-02T10:12:15.024Z,50.83
2019-03-02T10:14:44.528Z,49.76
2019-03-02T10:17:13.865Z,50.85
2019-03-02T10:19:43.264Z,51.76
2019-03-02T10:22:12.644Z,51.60
2019-03-02T10:24:42.025Z,52.04
2019-03-02T10:27:11.474Z,51.59
2019-03-02T10:29:44.328Z,52.52
2019-03-02T10:32:12.334Z,52.97
2019-03-02T10:34:42.860Z,54.01
2019-03-02T10:37:12.339Z,53.96
2019-03-02T10:39:41.737Z,52.55
2019-03-02T10:42:11.277Z,49.79
2019-03-02T10:44:40.694Z,50.11
2019-03-02T10:47:10.077Z,49.37
2019-03-02T10:49:39.430Z,48.14
2019-03-02T10:52:09.697Z,49.08
2019-03-02T10:54:39.977Z,49.69
2019-03-02T10:57:09.382Z,48.90
2019-03-02T10:59:38.796Z,48.51
2019-03-02T11:02:08.519Z,48.92
2019-03-02T11:04:51.862Z,48.60
2019-03-02T11:07:55.465Z,48.24
2019-03-02T11:10:42.626Z,47.06
2019-03-02T11:13:26.476Z,47.56
2019-03-02T11:16:19.998Z,48.20
2019-03-02T11:19:14.390Z,50.07
2019-03-02T11:22:05.688Z,49.88
2019-03-02T11:24:53.968Z,50.28
2019-03-02T11:27:42.251Z,49.82
2019-03-02T11:30:24.064Z,49.13
2019-03-02T11:33:00.351Z,49.37
2019-03-02T11:35:41.174Z,48.89
2019-03-02T11:38:47.843Z,47.47
2019-03-02T11:41:35.504Z,47.12
2019-03-02T11:44:21.645Z,48.18
2019-03-02T11:47:04.650Z,48.47
2019-03-02T11:49:59.016Z,47.11
2019-03-02T11:53:02.341Z,45.70
2019-03-02T11:55:49.429Z,44.89
2019-03-02T11:58:43.532Z,44.83
2019-03-02T12:01:34.304Z,44.81
2019-03-02T12:04:22.274Z,44.34
2019-03-02T12:07:16.675Z,45.92
2019-03-02T12:10:11.033Z,46.81
2019-03-02T12:12:55.641Z,46.82
2019-03-02T12:16:01.607Z,45.75
2019-03-02T12:18:40.211Z,45.02
2019-03-02T12:21:31.312Z,43.31
2019-03-02T12:24:14.952Z,42.92
2019-03-02T12:27:05.746Z,43.15
2019-03-02T12:29:57.133Z,43.83
2019-03-02T12:32:54.613Z,44.43
2019-03-02T12:35:40.258Z,44.52
2019-03-02T12:38:19.903Z,42.14
2019-03-02T12:41:01.523Z,42.76
2019-03-02T12:43:51.345Z,43.62
2019-03-02T12:46:38.700Z,45.36
2019-03-02T12:49:19.909Z,44.67
2019-03-02T12:52:03.611Z,44.82
2019-03-02T12:54:54.815Z,45.50
2019-03-02T12:57:45.507Z,45.75
2019-03-02T13:00:24.611Z,43.88
2019-03-02T13:03:27.195Z,43.88
2019-03-02T13:06:15.280Z,45.19
2019-03-02T13:08:53.625Z,44.94
2019-03-02T13:11:47.960Z,43.06
2019-03-02T13:14:33.777Z,41.51
2019-03-02T13:17:25.289Z,41.80
2019-03-02T13:20:03.915Z,41.36
2019-03-02T13:22:52.400Z,41.46
2019-03-02T13:25:46.028Z,42.08
2019-03-02T13:28:46.494Z,41.50
2019-03-02T13:31:43.789Z,40.73
2019-03-02T13:34:36.192Z,39.47
2019-03-02T13:37:30.760Z,37.85
2019-03-02T13:40:11.232Z,36.71
2019-03-02T13:42:50.940Z,36.83
2019-03-02T13:45:51.914Z,38.51
2019-03-02T13:48:44.509Z,39.52
2019-03-02T13:51:34.641Z,39.70
2019-03-02T13:54:22.150Z,39.38
2019-03-02T13:57:13.459Z,39.62
2019-03-02T14:00:07.890Z,38.80
2019-03-02T14:02:54.615Z,38.67
2019-03-02T14:05:32.866Z,39.15
2019-03-02T14:08:23.990Z,39.12
2019-03-02T14:11:11.782Z,39.37
2019-03-02T14:13:51.599Z,38.96
2019-03-02T14:16:35.431Z,37.48
2019-03-02T14:19:16.822Z,36.98
2019-03-02T14:21:59.993Z,36.60
2019-03-02T14:24:37.596Z,37.55
2019-03-02T14:27:29.315Z,39.01
2019-03-02T14:30:07.684Z,41.19
2019-03-02T14:32:56.036Z,41.72
2019-03-02T14:35:34.307Z,42.01
2019-03-02T14:38:23.873Z,42.28
2019-03-02T14:40:58.511Z,42.52
2019-03-02T14:43:46.802Z,42.68
2019-03-02T14:46:44.432Z,42.69
2019-03-02T14:49:48.164Z,42.33
2019-03-02T14:52:39.261Z,41.43
2019-03-02T14:55:25.217Z,41.42
2019-03-02T14:58:04.820Z,41.50
2019-03-02T15:00:59.022Z,41.88
2019-03-02T15:03:45.246Z,42.79
2019-03-02T15:06:40.602Z,43.08
2019-03-02T15:09:22.202Z,42.63
2019-03-02T15:12:03.667Z,43.23
2019-03-02T15:14:58.066Z,43.30
2019-03-02T15:17:48.845Z,42.50
2019-03-02T15:20:38.044Z,41.54
2019-03-02T15:23:15.913Z,41.42
2019-03-02T15:25:57.373Z,40.91
2019-03-02T15:28:44.546Z,41.35
2019-03-02T15:31:29.074Z,40.88
2019-03-02T15:34:17.394Z,41.45
2019-03-02T15:36:59.173Z,41.71
2019-03-02T15:39:49.382Z,42.34
2019-03-02T15:42:31.552Z,42.09
2019-03-02T15:45:25.957Z,42.60
2019-03-02T15:48:12.014Z,42.41
2019-03-02T15:50:51.270Z,42.46
2019-03-02T15:53:48.323Z,42.39
2019-03-02T15:56:30.267Z,42.92
2019-03-02T15:59:08.705Z,42.74
2019-03-02T16:01:51.283Z,43.05
2019-03-02T16:04:31.903Z,43.76
2019-03-02T16:07:23.774Z,44.16
2019-03-02T16:10:24.180Z,44.91
2019-03-02T16:13:08.015Z,45.38
2019-03-02T16:15:54.874Z,45.57
2019-03-02T16:18:49.327Z,45.72
2019-03-02T16:21:44.913Z,45.57
2019-03-02T16:24:42.470Z,45.80
2019-03-02T16:27:20.773Z,46.19
2019-03-02T16:30:09.137Z,46.50
2019-03-02T16:33:09.557Z,46.52
2019-03-02T16:35:45.776Z,47.00
2019-03-02T16:38:33.344Z,46.73
2019-03-02T16:41:21.034Z,46.59
2019-03-02T16:44:08.165Z,46.43
2019-03-02T16:46:51.482Z,46.47
2019-03-02T16:49:32.893Z,46.18
2019-03-02T16:52:33.325Z,46.31
2019-03-02T16:55:10.905Z,46.54
2019-03-02T16:57:59.471Z,46.83
2019-03-02T17:00:37.561Z,47.21
2019-03-02T17:03:42.782Z,47.48
2019-03-02T17:06:37.644Z,47.40
2019-03-02T17:09:26.814Z,47.98
2019-03-02T17:12:33.425Z,47.66
2019-03-02T17:15:30.733Z,47.86
2019-03-02T17:18:09.469Z,48.09
2019-03-02T17:20:57.753Z,48.13
2019-03-02T17:23:45.016Z,48.26
2019-03-02T17:26:22.186Z,48.75
2019-03-02T17:29:12.212Z,48.98
2019-03-02T17:31:51.663Z,49.33
2019-03-02T17:34:52.126Z,49.30
2019-03-02T17:37:46.211Z,49.37
2019-03-02T17:40:52.994Z,49.41
2019-03-02T17:43:46.716Z,49.75
2019-03-02T17:46:33.257Z,49.43
2019-03-02T17:49:11.256Z,49.48
2019-03-02T17:52:09.372Z,49.42
2019-03-02T17:54:55.380Z,49.56
2019-03-02T17:57:50.252Z,49.75
2019-03-02T18:00:29.006Z,49.77
2019-03-02T18:03:08.261Z,50.16
2019-03-02T18:06:11.821Z,50.24
2019-03-02T18:08:55.282Z,50.18
2019-03-02T18:11:52.448Z,50.20
2019-03-02T18:14:39.461Z,50.36
2019-03-02T18:17:31.377Z,50.54
2019-03-02T18:20:00.796Z,50.63
2019-03-02T18:22:30.220Z,51.21
2019-03-02T18:24:59.590Z,51.31
2019-03-02T18:27:28.993Z,51.37
2019-03-02T18:30:02.188Z,51.47
2019-03-02T18:32:30.170Z,51.83
2019-03-02T18:35:02.705Z,52.19
2019-03-02T18:37:32.035Z,52.36
2019-03-02T18:40:02.369Z,52.63
2019-03-02T18:42:32.663Z,52.82
2019-03-02T18:45:04.350Z,53.07
2019-03-02T18:47:33.252Z,53.16
2019-03-02T18:50:11.834Z,53.47
2019-03-02T18:52:57.170Z,53.56
2019-03-02T18:55:27.359Z,53.56
2019-03-02T18:57:58.383Z,53.80
2019-03-02T19:00:30.941Z,53.73
2019-03-02T19:03:00.404Z,54.14
2019-03-02T19:05:28.863Z,53.97
2019-03-02T19:07:59.816Z,54.01
2019-03-02T19:10:29.357Z,54.14
2019-03-02T19:12:58.812Z,53.99
2019-03-02T19:15:28.470Z,54.13
2019-03-02T19:17:57.950Z,54.30
2019-03-02T19:20:27.337Z,54.31
2019-03-02T19:22:56.739Z,54.33
2019-03-02T19:25:26.093Z,54.31
2019-03-02T19:27:55.467Z,54.38
2019-03-02T19:30:24.821Z,54.25
2019-03-02T19:32:54.192Z,54.41
2019-03-02T19:35:23.571Z,54.45
2019-03-02T19:37:52.969Z,54.47
2019-03-02T19:40:24.636Z,54.64
2019-03-02T19:42:56.644Z,54.49
2019-03-02T19:45:26.045Z,54.51
2019-03-02T19:47:55.431Z,54.49
2019-03-02T19:50:24.826Z,54.44
2019-03-02T19:52:54.204Z,54.77
2019-03-02T19:55:23.739Z,54.67
2019-03-02T19:57:53.106Z,54.71
2019-03-02T20:00:27.202Z,54.63
2019-03-02T20:02:56.581Z,54.58
2019-03-02T20:05:26.085Z,54.71
2019-03-02T20:07:55.439Z,54.94
2019-03-02T20:10:25.896Z,55.10
2019-03-02T20:12:55.424Z,54.96
2019-03-02T20:15:24.870Z,54.93
2019-03-02T20:17:54.218Z,55.14
2019-03-02T20:20:23.744Z,55.43
2019-03-02T20:22:53.211Z,55.87
2019-03-02T20:25:22.643Z,55.98
2019-03-02T20:27:52.037Z,56.11
2019-03-02T20:30:21.507Z,56.24
2019-03-02T20:32:53.506Z,56.45
2019-03-02T20:35:23.301Z,56.55
2019-03-02T20:37:53.956Z,56.49
2019-03-02T20:40:23.321Z,56.23
2019-03-02T20:42:52.667Z,56.21
2019-03-02T20:45:22.163Z,56.44
2019-03-02T20:47:51.522Z,56.51
2019-03-02T20:50:20.945Z,56.70
2019-03-02T20:52:50.319Z,56.73
2019-03-02T20:55:20.543Z,57.02
2019-03-02T20:57:50.449Z,56.99
2019-03-02T21:00:22.616Z,57.22
2019-03-02T21:02:52.430Z,57.04
2019-03-02T21:05:21.835Z,56.98
2019-03-02T21:07:51.236Z,57.24
2019-03-02T21:10:21.899Z,57.43
2019-03-02T21:12:51.298Z,57.26
2019-03-02T21:15:28.610Z,57.42
2019-03-02T21:17:58.144Z,57.47
2019-03-02T21:20:27.527Z,57.53
2019-03-02T21:22:56.905Z,57.65
2019-03-02T21:25:26.312Z,57.71
2019-03-02T21:27:55.680Z,57.77
2019-03-02T21:30:25.059Z,57.68
2019-03-02T21:32:54.549Z,57.86
2019-03-02T21:35:23.919Z,57.71
2019-03-02T21:37:53.305Z,58.15
2019-03-02T21:40:23.077Z,58.44
2019-03-02T21:42:52.507Z,58.56
2019-03-02T21:45:22.711Z,58.70
2019-03-02T21:47:52.876Z,58.79
2019-03-02T21:50:24.415Z,58.76
2019-03-02T21:52:53.817Z,58.98
2019-03-02T21:55:23.202Z,59.03
2019-03-02T21:57:52.687Z,58.96
2019-03-02T22:00:23.837Z,58.88
2019-03-02T22:02:53.282Z,59.01
2019-03-02T22:05:22.663Z,58.80
2019-03-02T22:07:52.085Z,58.66
2019-03-02T22:10:24.560Z,58.66
2019-03-02T22:12:53.907Z,58.57
2019-03-02T22:15:23.316Z,58.77
2019-03-02T22:17:53.544Z,58.66
2019-03-02T22:20:23.043Z,58.85
2019-03-02T22:22:52.478Z,58.73
2019-03-02T22:25:21.951Z,58.62
2019-03-02T22:27:51.347Z,58.70
2019-03-02T22:30:22.119Z,59.41
2019-03-02T22:32:51.496Z,59.37
2019-03-02T22:35:20.826Z,59.53
2019-03-02T22:37:50.200Z,59.97
2019-03-02T22:40:19.763Z,60.26
2019-03-02T22:42:49.107Z,60.52
2019-03-02T22:45:18.480Z,60.88
2019-03-02T22:47:47.883Z,61.02
2019-03-02T22:50:18.839Z,61.31
2019-03-02T22:52:48.233Z,61.35
2019-03-02T22:55:17.780Z,61.40
2019-03-02T22:57:48.643Z,61.64
2019-03-02T23:01:05.981Z,61.68
2019-03-02T23:03:33.540Z,61.64
2019-03-02T23:06:02.889Z,61.77
2019-03-02T23:08:32.287Z,62.01
2019-03-02T23:11:01.622Z,62.19
2019-03-02T23:13:30.982Z,62.30
2019-03-02T23:16:00.477Z,62.67
2019-03-02T23:18:29.836Z,62.80
2019-03-02T23:20:59.199Z,63.29
2019-03-02T23:23:28.560Z,63.39
2019-03-02T23:25:57.934Z,64.10
2019-03-02T23:28:27.287Z,64.24
2019-03-02T23:30:56.703Z,64.58
2019-03-02T23:33:26.071Z,64.90
2019-03-02T23:35:55.403Z,65.11
2019-03-02T23:38:24.738Z,65.42
2019-03-02T23:40:54.096Z,65.40
2019-03-02T23:43:23.454Z,65.52
2019-03-02T23:45:52.791Z,66.18
2019-03-02T23:48:22.146Z,66.75
2019-03-02T23:50:51.821Z,68.23
2019-03-02T23:53:21.203Z,68.71
2019-03-02T23:55:50.635Z,69.40
2019-03-02T23:58:20.018Z,69.87
